Time;durP1;ratioP1;P1;durP2;ratioP2;P2;SDS_P1;SDS_P2;PMS_P1;PMS_P2;Temp;Humidity;BMP_temperature;BMP_pressure;BME280_temperature;BME280_humidity;BME280_pressure;Samples;Min_cycle;Max_cycle;Signal;HPM_P1;HPM_P2
2021/01/25 00:00:09;;;;;;;22.13;12.20;;;;;;;5.13;99.38;98860.67;1718387;83;21618;-63
2021/01/25 00:02:41;;;;;;;39.83;19.57;;;;;;;5.15;99.35;98856.25;1718801;83;21182;-63
2021/01/25 00:05:11;;;;;;;36.20;17.90;;;;;;;5.14;99.28;98859.32;1706595;82;21200;-64
2021/01/25 00:07:40;;;;;;;23.60;12.67;;;;;;;5.13;99.17;98860.24;1701566;84;21615;-64
2021/01/25 00:10:12;;;;;;;19.42;10.50;;;;;;;5.14;99.22;98864.54;1721034;79;21681;-70
2021/01/25 00:12:39;;;;;;;24.87;12.73;;;;;;;5.15;99.10;98866.23;1729082;83;21178;-71
2021/01/25 00:15:10;;;;;;;19.17;10.28;;;;;;;5.14;99.05;98867.61;1736638;81;21135;-71
2021/01/25 00:17:37;;;;;;;12.50;8.43;;;;;;;5.13;99.03;98860.24;1700743;83;21192;-69
2021/01/25 00:20:07;;;;;;;15.88;10.08;;;;;;;5.09;98.99;98859.09;1705613;84;21176;-70
2021/01/25 00:22:37;;;;;;;12.85;8.53;;;;;;;5.08;99.03;98865.20;1698439;84;21379;-70
2021/01/25 00:25:07;;;;;;;38.45;19.90;;;;;;;5.06;99.12;98861.33;1734030;79;21214;-63
2021/01/25 00:27:36;;;;;;;31.35;16.93;;;;;;;5.03;99.02;98853.62;1733749;82;21189;-62
2021/01/25 00:30:05;;;;;;;22.75;12.10;;;;;;;5.01;98.99;98855.43;1733275;82;21127;-63
2021/01/25 00:32:34;;;;;;;16.40;9.58;;;;;;;4.98;99.05;98858.16;1733526;82;21649;-63
2021/01/25 00:35:03;;;;;;;15.38;10.13;;;;;;;4.96;99.15;98852.13;1733439;82;22284;-62
2021/01/25 00:37:31;;;;;;;16.37;10.53;;;;;;;4.94;99.16;98859.16;1733311;82;21183;-62
2021/01/25 00:39:59;;;;;;;15.65;9.78;;;;;;;4.92;99.19;98862.27;1746817;78;21180;-64
2021/01/25 00:42:26;;;;;;;18.90;10.53;;;;;;;4.90;99.24;98857.55;1706082;81;21777;-66
2021/01/25 00:44:55;;;;;;;17.67;11.18;;;;;;;4.88;99.27;98862.84;1705563;83;21202;-66
2021/01/25 00:47:23;;;;;;;14.28;10.20;;;;;;;4.88;99.38;98867.19;1736553;82;21283;-65
2021/01/25 00:49:51;;;;;;;17.25;10.20;;;;;;;4.86;99.32;98858.59;1775774;80;21199;-67
2021/01/25 00:52:18;;;;;;;21.87;11.05;;;;;;;4.83;99.29;98851.27;1775715;80;21148;-69
2021/01/25 00:54:46;;;;;;;20.20;11.33;;;;;;;4.82;99.26;98850.84;1772938;79;21158;-62
2021/01/25 00:57:14;;;;;;;13.70;8.98;;;;;;;4.81;99.22;98852.22;1737393;81;21688;-65
2021/01/25 00:59:43;;;;;;;23.32;11.68;;;;;;;4.78;99.22;98851.84;1731573;82;21239;-66
2021/01/25 01:02:12;;;;;;;25.90;11.88;;;;;;;4.77;99.18;98847.55;1734311;82;21424;-65
2021/01/25 01:04:40;;;;;;;20.80;9.28;;;;;;;4.77;99.28;98842.79;1733437;82;21225;-64
2021/01/25 01:07:10;;;;;;;20.68;11.05;;;;;;;4.73;99.34;98844.64;1733387;82;21154;-62
2021/01/25 01:09:38;;;;;;;30.92;11.93;;;;;;;4.70;99.50;98840.84;1737551;79;21169;-67
2021/01/25 01:12:08;;;;;;;19.98;10.40;;;;;;;4.67;99.53;98838.34;1762546;81;21288;-67
2021/01/25 01:14:36;;;;;;;16.82;9.40;;;;;;;4.66;99.56;98832.71;1762660;81;21213;-67
2021/01/25 01:17:03;;;;;;;33.38;11.40;;;;;;;4.65;99.61;98832.33;1762420;81;21686;-68
2021/01/25 01:19:32;;;;;;;16.77;9.35;;;;;;;4.63;99.73;98831.52;1762355;81;21208;-63
2021/01/25 01:22:00;;;;;;;18.95;9.60;;;;;;;4.62;99.86;98829.80;1762508;81;21583;-63
2021/01/25 01:24:28;;;;;;;37.03;11.63;;;;;;;4.62;99.90;98831.10;1753274;78;21446;-64
2021/01/25 01:26:56;;;;;;;25.00;11.48;;;;;;;4.60;99.88;98828.99;1694998;84;21673;-64
2021/01/25 01:29:23;;;;;;;29.20;12.18;;;;;;;4.59;99.93;98823.39;1695514;84;21701;-65
2021/01/25 01:31:51;;;;;;;17.90;10.43;;;;;;;4.58;99.96;98823.85;1695532;84;21239;-65
2021/01/25 01:34:20;;;;;;;32.08;11.53;;;;;;;4.58;100.00;98825.61;1695563;84;21682;-65
2021/01/25 01:36:48;;;;;;;21.93;11.12;;;;;;;4.56;100.00;98828.72;1695477;84;21517;-65
2021/01/25 01:39:16;;;;;;;26.02;11.48;;;;;;;4.53;100.00;98826.20;1696821;80;21171;-66
2021/01/25 01:41:44;;;;;;;24.25;12.10;;;;;;;4.52;100.00;98825.81;1666728;86;21142;-66
2021/01/25 01:44:12;;;;;;;29.57;12.88;;;;;;;4.53;100.00;98837.92;1675865;85;21165;-67
2021/01/25 01:46:42;;;;;;;28.27;12.93;;;;;;;4.53;100.00;98832.71;1666822;86;21238;-69
2021/01/25 01:49:12;;;;;;;19.75;13.32;;;;;;;4.52;100.00;98836.23;1675824;85;22824;-67
2021/01/25 01:51:40;;;;;;;22.65;13.62;;;;;;;4.52;100.00;98836.23;1671141;84;21588;-68
2021/01/25 01:54:19;;;;;;;26.27;13.68;;;;;;;4.49;100.00;98830.67;1720659;83;21175;-67
2021/01/25 01:56:47;;;;;;;18.85;12.13;;;;;;;4.51;100.00;98829.30;1730326;82;21202;-65
2021/01/25 01:59:15;;;;;;;25.72;14.13;;;;;;;4.50;100.00;98831.06;1720606;83;21228;-64
2021/01/25 02:01:43;;;;;;;33.02;15.53;;;;;;;4.52;100.00;98828.42;1730652;81;21295;-62
2021/01/25 02:04:13;;;;;;;28.50;16.02;;;;;;;4.54;100.00;98830.52;1750613;81;22111;-62
2021/01/25 02:06:42;;;;;;;33.23;18.42;;;;;;;4.52;100.00;98828.42;1761016;81;21180;-63
2021/01/25 02:09:10;;;;;;;31.10;18.00;;;;;;;4.51;100.00;98830.18;1737188;81;21208;-63
2021/01/25 02:12:06;;;;;;;22.62;13.53;;;;;;;4.50;100.00;98832.83;1672482;84;21217;-62
2021/01/25 02:14:34;;;;;;;68.85;34.88;;;;;;;4.50;100.00;98836.73;1681315;85;21394;-63
2021/01/25 02:17:02;;;;;;;40.12;23.47;;;;;;;4.49;100.00;98833.74;1659535;85;21650;-63
2021/01/25 02:19:48;;;;;;;28.95;17.37;;;;;;;4.47;100.00;98832.94;1639175;87;21669;-63
2021/01/25 02:22:25;;;;;;;64.62;35.40;;;;;;;4.47;100.00;98834.23;1653251;86;21611;-62
2021/01/25 02:25:19;;;;;;;25.60;16.50;;;;;;;4.45;100.00;98838.65;1655146;83;21233;-66
2021/01/25 02:27:47;;;;;;;27.37;17.48;;;;;;;4.47;100.00;98843.37;1701311;84;22260;-64
2021/01/25 02:30:16;;;;;;;25.97;15.78;;;;;;;4.39;100.00;98840.56;1707046;84;21245;-64
2021/01/25 02:32:43;;;;;;;35.33;19.65;;;;;;;4.39;100.00;98840.56;1702109;84;21186;-65
2021/01/25 02:35:16;;;;;;;33.70;19.45;;;;;;;4.38;100.00;98844.51;1672585;84;21208;-67
2021/01/25 02:37:45;;;;;;;21.15;12.20;;;;;;;4.36;100.00;98846.31;1701957;84;21200;-65
2021/01/25 02:40:14;;;;;;;32.25;19.10;;;;;;;4.38;100.00;98847.96;1672411;85;21368;-66
2021/01/25 02:42:42;;;;;;;36.85;21.02;;;;;;;4.38;100.00;98851.88;1702014;84;21191;-65
2021/01/25 02:45:10;;;;;;;36.40;19.55;;;;;;;4.37;100.00;98852.79;1672248;85;21153;-66
2021/01/25 02:47:38;;;;;;;47.20;23.55;;;;;;;4.35;100.00;98851.98;1701985;84;21199;-66
2021/01/25 02:50:07;;;;;;;27.27;17.27;;;;;;;4.35;100.00;98855.89;1643435;85;21232;-65
2021/01/25 02:52:37;;;;;;;31.52;18.25;;;;;;;4.33;99.98;98851.17;1702276;84;22008;-66
2021/01/25 02:55:07;;;;;;;43.70;21.33;;;;;;;4.30;100.00;98846.07;1672164;85;21240;-66
2021/01/25 02:57:36;;;;;;;34.70;20.52;;;;;;;4.29;100.00;98852.17;1702330;84;21216;-67
2021/01/25 03:00:09;;;;;;;34.63;16.85;;;;;;;4.26;100.00;98850.97;1697016;79;21223;-63
2021/01/25 03:02:37;;;;;;;37.25;18.45;;;;;;;4.24;100.00;98862.34;1765587;81;21211;-63
2021/01/25 03:05:07;;;;;;;21.87;14.07;;;;;;;4.22;100.00;98857.17;1739972;81;21209;-62
2021/01/25 03:07:51;;;;;;;24.87;14.20;;;;;;;4.28;100.00;98856.98;1843626;76;22885;-63
2021/01/25 03:10:20;;;;;;;26.23;15.35;;;;;;;4.25;100.00;98857.06;1815792;79;21123;-62
2021/01/25 03:12:48;;;;;;;26.37;16.40;;;;;;;4.25;100.00;98862.28;1815636;79;21181;-64
2021/01/25 03:15:18;;;;;;;20.43;12.95;;;;;;;4.27;100.00;98864.39;1774216;76;21217;-65
2021/01/25 03:17:46;;;;;;;27.05;15.65;;;;;;;4.25;100.00;98849.25;1745209;82;21217;-67
2021/01/25 03:20:15;;;;;;;24.50;15.88;;;;;;;4.25;100.00;98849.25;1745420;82;21126;-66
2021/01/25 03:22:43;;;;;;;34.65;13.20;;;;;;;4.29;100.00;98863.05;1745474;81;21193;-67
2021/01/25 03:25:12;;;;;;;31.00;14.70;;;;;;;4.25;100.00;98855.77;1745351;82;21194;-69
2021/01/25 03:27:39;;;;;;;29.95;18.27;;;;;;;4.23;100.00;98848.44;1745445;82;21062;-67
2021/01/25 03:30:10;;;;;;;33.35;15.78;;;;;;;4.23;100.00;98848.90;1744132;80;21189;-62
2021/01/25 03:32:41;;;;;;;41.75;13.70;;;;;;;4.25;100.00;98845.80;1748076;80;21117;-63
2021/01/25 03:35:11;;;;;;;25.43;13.45;;;;;;;4.25;100.00;98844.03;1748390;81;21142;-64
2021/01/25 03:37:39;;;;;;;16.12;11.38;;;;;;;4.26;100.00;98848.36;1748437;82;21202;-62
2021/01/25 03:40:10;;;;;;;24.95;14.18;;;;;;;4.26;100.00;98848.36;1748328;82;21162;-63
2021/01/25 03:42:39;;;;;;;26.90;12.47;;;;;;;4.27;100.00;98850.05;1748412;81;21784;-63
2021/01/25 03:45:12;;;;;;;28.73;13.35;;;;;;;4.25;100.00;98851.85;1739047;78;21167;-66
2021/01/25 03:47:40;;;;;;;16.75;11.12;;;;;;;4.25;100.00;98855.77;1703825;84;21217;-65
2021/01/25 03:50:11;;;;;;;17.92;10.85;;;;;;;4.22;100.00;98845.45;1716765;83;22378;-65
2021/01/25 03:52:38;;;;;;;45.63;15.15;;;;;;;4.20;100.00;98845.48;1716741;83;21642;-65
2021/01/25 03:55:09;;;;;;;24.43;12.55;;;;;;;4.18;100.00;98829.50;1721882;83;21259;-65
2021/01/25 03:57:37;;;;;;;17.02;11.00;;;;;;;4.16;100.00;98827.39;1721965;83;21759;-65
2021/01/25 04:00:07;;;;;;;21.80;11.68;;;;;;;4.12;100.00;98821.44;1745678;78;21182;-63
2021/01/25 04:02:36;;;;;;;37.83;14.23;;;;;;;4.12;100.00;98821.44;1824246;78;21354;-64
2021/01/25 04:05:06;;;;;;;34.03;12.47;;;;;;;4.11;100.00;98809.75;1824087;78;21158;-63
2021/01/25 04:07:34;;;;;;;23.40;12.03;;;;;;;4.11;100.00;98811.05;1824349;78;21105;-64
2021/01/25 04:10:04;;;;;;;35.00;13.28;;;;;;;4.11;100.00;98809.30;1824231;78;21170;-64
2021/01/25 04:12:32;;;;;;;29.87;11.25;;;;;;;4.11;100.00;98807.15;1824296;78;21637;-62
2021/01/25 04:15:01;;;;;;;30.32;11.50;;;;;;;4.11;100.00;98803.24;1818511;76;21440;-64
2021/01/25 04:17:28;;;;;;;21.30;12.00;;;;;;;4.11;100.00;98812.36;1760194;80;21526;-65
2021/01/25 04:19:56;;;;;;;34.75;13.75;;;;;;;4.10;100.00;98818.48;1755638;81;21130;-63
2021/01/25 04:22:24;;;;;;;16.60;11.40;;;;;;;4.10;100.00;98809.37;1774969;80;21138;-64
2021/01/25 04:24:52;;;;;;;16.42;11.48;;;;;;;4.10;100.00;98811.97;1742640;82;21090;-63
2021/01/25 04:27:20;;;;;;;22.73;9.20;;;;;;;4.07;100.00;98818.56;1774894;80;21199;-64
2021/01/25 04:29:47;;;;;;;27.17;12.85;;;;;;;4.05;100.00;98817.75;1773765;78;21327;-65
2021/01/25 04:32:15;;;;;;;16.42;11.15;;;;;;;4.05;100.00;98818.63;1797296;79;21183;-65
2021/01/25 04:34:43;;;;;;;24.20;12.55;;;;;;;4.03;100.00;98813.91;1765811;81;21114;-64
2021/01/25 04:37:11;;;;;;;18.75;10.60;;;;;;;4.05;100.00;98820.36;1764103;81;21149;-65
2021/01/25 04:39:40;;;;;;;26.00;14.28;;;;;;;4.05;100.00;98820.36;1818494;78;21828;-65
2021/01/25 04:42:09;;;;;;;17.23;10.90;;;;;;;4.06;100.00;98820.78;1828119;78;21142;-65
2021/01/25 04:44:40;;;;;;;37.13;20.85;;;;;;;4.03;100.00;98805.25;1789473;79;21689;-64
2021/01/25 04:47:07;;;;;;;24.35;13.88;;;;;;;4.03;100.00;98805.25;1728554;83;21157;-62
2021/01/25 04:49:36;;;;;;;30.92;15.65;;;;;;;4.04;100.00;98810.86;1728710;82;21124;-64
2021/01/25 04:52:04;;;;;;;40.73;20.10;;;;;;;4.05;100.00;98811.24;1728672;83;21187;-64
2021/01/25 04:54:33;;;;;;;30.60;16.37;;;;;;;4.07;100.00;98810.75;1728652;83;21162;-63
2021/01/25 04:57:01;;;;;;;18.85;11.73;;;;;;;4.11;100.00;98814.97;1728751;83;21574;-67
2021/01/25 04:59:39;;;;;;;16.20;10.50;;;;;;;4.09;100.00;98814.16;1727642;83;21134;-63
2021/01/25 05:02:07;;;;;;;20.00;12.37;;;;;;;4.09;100.00;98806.34;1661568;83;21094;-67
2021/01/25 05:04:35;;;;;;;20.90;12.60;;;;;;;4.10;100.00;98809.37;1682599;85;21379;-69
2021/01/25 05:07:04;;;;;;;23.42;14.53;;;;;;;4.10;100.00;98809.37;1713094;82;21135;-66
2021/01/25 05:09:32;;;;;;;22.95;13.65;;;;;;;4.10;100.00;98809.37;1697428;84;21116;-65
2021/01/25 05:12:02;;;;;;;18.30;11.38;;;;;;;4.12;100.00;98808.88;1697348;84;21155;-67
2021/01/25 05:14:50;;;;;;;20.90;13.35;;;;;;;4.12;100.00;98803.66;1685588;84;21558;-64
2021/01/25 05:17:17;;;;;;;22.80;12.53;;;;;;;4.09;100.00;98806.34;1736434;82;21342;-64
2021/01/25 05:19:46;;;;;;;15.20;10.45;;;;;;;4.07;100.00;98805.53;1736463;82;21188;-64
2021/01/25 05:22:19;;;;;;;25.92;12.10;;;;;;;4.07;100.00;98805.53;1736480;82;21107;-64
2021/01/25 05:24:51;;;;;;;13.50;9.33;;;;;;;4.07;100.00;98814.66;1736589;82;21139;-66
2021/01/25 05:27:25;;;;;;;15.45;10.10;;;;;;;4.07;100.00;98814.66;1736514;82;21162;-64
2021/01/25 05:29:54;;;;;;;23.55;11.63;;;;;;;4.09;100.00;98811.55;1735865;79;21190;-68
2021/01/25 05:32:23;;;;;;;18.30;10.55;;;;;;;4.09;100.00;98811.55;1663633;84;21143;-65
2021/01/25 05:34:57;;;;;;;20.70;13.00;;;;;;;4.09;100.00;98811.55;1663503;86;21139;-66
2021/01/25 05:37:25;;;;;;;22.60;12.75;;;;;;;4.08;100.00;98817.68;1663015;85;21135;-66
2021/01/25 05:39:53;;;;;;;26.62;16.62;;;;;;;4.09;100.00;98816.77;1663558;86;21553;-65
2021/01/25 05:42:20;;;;;;;28.07;16.30;;;;;;;4.09;100.00;98825.88;1615695;86;21624;-65
2021/01/25 05:45:51;;;;;;;24.47;15.77;;;;;;;4.15;100.00;98829.61;1769103;75;23573;-64
2021/01/25 05:48:19;;;;;;;28.27;19.00;;;;;;;4.15;100.00;98833.52;1651644;85;21266;-63
2021/01/25 05:50:47;;;;;;;19.15;12.68;;;;;;;4.17;100.00;98844.75;1680152;85;21378;-64
2021/01/25 05:53:15;;;;;;;21.62;13.72;;;;;;;4.17;100.00;98844.75;1680149;85;21208;-64
2021/01/25 05:55:45;;;;;;;16.52;11.50;;;;;;;4.08;100.00;98847.64;1680144;85;21206;-63
2021/01/25 05:58:13;;;;;;;15.30;10.53;;;;;;;4.08;100.00;98847.64;1672406;85;21220;-63
2021/01/25 06:00:41;;;;;;;15.78;10.30;;;;;;;4.06;100.00;98845.53;1696109;78;21244;-68
2021/01/25 06:03:09;;;;;;;14.60;9.53;;;;;;;4.03;100.00;98842.57;1734999;81;22327;-68
2021/01/25 06:05:40;;;;;;;17.62;11.35;;;;;;;3.99;100.00;98840.50;1748302;82;21215;-67
2021/01/25 06:08:47;;;;;;;15.58;10.85;;;;;;;3.98;100.00;98841.41;1755455;81;22169;-68
2021/01/25 06:11:31;;;;;;;17.95;11.05;;;;;;;3.99;100.00;98840.50;1755532;80;21245;-67
2021/01/25 06:17:26;;;;;;;17.62;10.85;;;;;;;4.01;100.00;98850.87;1737116;77;21225;-96
2021/01/25 06:20:40;;;;;;;17.98;11.35;;;;;;;4.01;100.00;98850.87;1716049;81;21191;-96
2021/01/25 06:23:48;;;;;;;19.98;11.22;;;;;;;4.01;100.00;98844.83;1720063;81;21179;-95
2021/01/25 06:26:40;;;;;;;18.07;10.85;;;;;;;4.04;100.00;98840.81;1768158;78;21188;-96
2021/01/25 06:29:23;;;;;;;19.25;11.28;;;;;;;4.07;100.00;98839.41;1771679;79;21191;-95
2021/01/25 06:32:34;;;;;;;19.40;12.60;;;;;;;4.12;100.00;98833.63;1707883;82;21160;-95
2021/01/25 06:35:17;;;;;;;18.98;12.55;;;;;;;4.19;100.00;98826.01;1702609;82;21191;-95
2021/01/25 06:38:25;;;;;;;20.43;12.35;;;;;;;4.23;100.00;98823.69;1679370;83;21057;-96
2021/01/25 06:41:48;;;;;;;15.83;10.68;;;;;;;4.23;100.00;98809.35;1748167;79;21073;-92
2021/01/25 06:45:03;;;;;;;18.62;12.07;;;;;;;4.33;100.00;98815.98;1769418;79;20848;-93
2021/01/25 06:48:16;;;;;;;26.55;15.38;;;;;;;4.33;100.00;98815.98;1758830;78;21160;-93
2021/01/25 06:51:22;;;;;;;25.75;16.20;;;;;;;4.39;100.00;98805.37;1695876;80;72628;-68
2021/01/25 06:53:52;;;;;;;29.07;17.00;;;;;;;4.40;99.93;98817.48;1648967;82;21777;-67
2021/01/25 06:56:21;;;;;;;17.70;11.83;;;;;;;4.39;99.16;98825.34;1694259;83;21188;-66
2021/01/25 06:58:50;;;;;;;19.07;11.88;;;;;;;4.41;99.43;98821.78;1645149;86;21687;-67
2021/01/25 07:01:22;;;;;;;18.62;11.65;;;;;;;4.46;99.25;98839.03;1668634;85;21459;-69
2021/01/25 07:03:57;;;;;;;16.20;10.65;;;;;;;4.46;99.25;98839.03;1668915;85;21251;-68
2021/01/25 07:06:37;;;;;;;14.25;10.25;;;;;;;4.47;98.45;98840.76;1654442;84;21224;-69
2021/01/25 07:09:06;;;;;;;17.57;11.00;;;;;;;4.47;98.45;98840.76;1640967;86;22315;-67
2021/01/25 07:11:35;;;;;;;16.93;10.20;;;;;;;4.48;98.51;98835.93;1653269;85;24164;-66
2021/01/25 07:14:03;;;;;;;16.60;9.30;;;;;;;4.50;98.11;98839.34;1624811;88;21742;-67
2021/01/25 07:16:32;;;;;;;17.82;10.30;;;;;;;4.48;97.78;98822.44;1666225;84;21219;-69
2021/01/25 07:19:00;;;;;;;19.55;11.65;;;;;;;4.48;97.78;98822.44;1676443;82;21166;-67
2021/01/25 07:21:36;;;;;;;17.75;10.82;;;;;;;4.49;97.74;98824.16;1681584;80;21535;-66
2021/01/25 07:24:06;;;;;;;17.35;8.65;;;;;;;4.52;97.37;98825.81;1674624;84;21174;-63
2021/01/25 07:26:39;;;;;;;16.12;11.73;;;;;;;4.56;97.36;98819.14;1675320;84;21384;-66
2021/01/25 07:29:10;;;;;;;17.23;11.73;;;;;;;4.53;96.90;98814.47;1698892;84;21184;-66
2021/01/25 07:31:39;;;;;;;17.42;12.28;;;;;;;4.55;96.61;98828.30;1692218;84;21687;-66
2021/01/25 07:34:14;;;;;;;18.10;12.40;;;;;;;4.56;96.39;98820.44;1681159;84;21663;-67
2021/01/25 07:39:49;;;;;;;15.43;9.95;;;;;;;4.58;95.99;98817.80;1651014;87;21218;-89
2021/01/25 07:42:56;;;;;;;17.77;10.78;;;;;;;4.56;95.71;98811.77;1625141;88;21434;-91
2021/01/25 07:45:34;;;;;;;18.98;12.25;;;;;;;4.60;95.65;98809.44;1627462;88;21143;-89
2021/01/25 07:48:10;;;;;;;26.33;13.38;;;;;;;4.65;95.72;98800.16;1649870;87;21183;-88
2021/01/25 07:50:54;;;;;;;18.15;10.68;;;;;;;4.68;95.14;98798.31;1651104;83;21146;-89
2021/01/25 07:53:22;;;;;;;16.73;9.98;;;;;;;4.70;95.26;98793.89;1651583;86;21675;-68
2021/01/25 07:55:50;;;;;;;17.77;10.23;;;;;;;4.72;94.66;98799.91;1651416;86;21617;-67
2021/01/25 07:58:19;;;;;;;16.82;10.08;;;;;;;4.74;94.57;98797.23;1656573;86;21625;-65
2021/01/25 08:00:47;;;;;;;15.78;9.85;;;;;;;4.76;94.57;98800.64;1679445;85;21241;-67
2021/01/25 08:03:30;;;;;;;16.97;11.22;;;;;;;4.79;94.66;98804.01;1667620;85;21187;-67
2021/01/25 08:06:00;;;;;;;17.80;11.18;;;;;;;4.79;94.36;98801.86;1671765;85;21404;-67
2021/01/25 08:08:29;;;;;;;18.52;11.55;;;;;;;4.81;94.07;98806.11;1673399;85;21211;-67
2021/01/25 08:10:58;;;;;;;20.68;11.85;;;;;;;4.84;94.17;98796.87;1676093;83;21252;-66
2021/01/25 08:13:36;;;;;;;17.15;11.45;;;;;;;4.83;93.64;98796.48;1676953;84;22852;-67
2021/01/25 08:16:13;;;;;;;16.27;10.50;;;;;;;4.87;93.78;98791.15;1695294;84;21187;-68
2021/01/25 08:18:58;;;;;;;17.60;11.35;;;;;;;4.90;93.85;98792.33;1665819;84;21360;-66
2021/01/25 08:21:34;;;;;;;17.07;10.93;;;;;;;4.92;93.69;98800.96;1664082;85;21275;-67
2021/01/25 08:24:06;;;;;;;20.90;11.88;;;;;;;4.94;93.79;98809.59;1683844;83;21217;-67
2021/01/25 08:26:35;;;;;;;18.65;12.28;;;;;;;4.95;93.80;98804.33;1667853;84;21186;-68
2021/01/25 08:29:09;;;;;;;15.88;11.15;;;;;;;4.96;93.51;98799.95;1662147;85;22323;-68
2021/01/25 08:31:42;;;;;;;20.92;10.80;;;;;;;4.97;93.59;98799.03;1657143;86;21255;-67
2021/01/25 08:34:30;;;;;;;19.32;11.53;;;;;;;4.95;93.37;98800.88;1655596;86;21191;-68
2021/01/25 08:37:09;;;;;;;23.20;12.53;;;;;;;4.93;93.46;98795.70;1657384;85;21670;-68
2021/01/25 08:39:43;;;;;;;23.50;11.12;;;;;;;4.89;93.50;98789.34;1634862;86;21230;-68
2021/01/25 08:42:24;;;;;;;33.13;16.30;;;;;;;4.84;93.21;98779.91;1625899;86;21219;-68
2021/01/25 08:44:56;;;;;;;;;;;;;;;4.87;93.76;98777.64;1629679;86;21901;-69
2021/01/25 08:47:30;;;;;;;28.42;16.25;;;;;;;4.90;93.58;98777.56;1613030;86;20605;-67
2021/01/25 08:49:59;;;;;;;23.12;13.32;;;;;;;4.90;93.31;98779.30;1634112;87;21239;-68
2021/01/25 08:52:30;;;;;;;28.02;15.28;;;;;;;4.94;93.35;98771.77;1633040;85;21252;-68
2021/01/25 08:55:15;;;;;;;20.25;12.95;;;;;;;4.95;93.27;98756.06;1624513;87;21699;-67
2021/01/25 08:57:52;;;;;;;23.97;13.73;;;;;;;5.04;93.28;98758.80;1814623;78;25748;-68
2021/01/25 09:00:31;;;;;;;21.80;13.60;;;;;;;5.00;93.01;98775.00;1795355;78;21175;-69
2021/01/25 09:03:06;;;;;;;25.55;13.58;;;;;;;5.04;93.20;98767.93;1794507;78;21179;-68
2021/01/25 09:05:35;;;;;;;27.77;14.90;;;;;;;5.07;92.88;98747.39;1796892;79;21609;-68
2021/01/25 09:08:03;;;;;;;26.77;14.87;;;;;;;5.08;92.77;98742.09;1739056;81;21198;-67
2021/01/25 09:10:33;;;;;;;;;;;;;;;5.10;92.58;98739.44;1762582;80;21245;-67
2021/01/25 09:13:02;;;;;;;29.30;15.40;;;;;;;5.08;92.65;98744.70;1734966;80;20276;-65
2021/01/25 09:15:30;;;;;;;26.82;15.50;;;;;;;5.06;92.73;98740.00;1769747;80;21252;-67
2021/01/25 09:17:59;;;;;;;29.48;14.73;;;;;;;5.08;92.93;98734.73;1743109;81;21169;-67
2021/01/25 09:20:27;;;;;;;26.23;15.65;;;;;;;5.08;93.00;98734.27;1745523;81;21146;-67
2021/01/25 09:22:54;;;;;;;35.85;17.45;;;;;;;5.08;93.14;98729.05;1763056;79;21178;-66
2021/01/25 09:25:22;;;;;;;29.92;17.27;;;;;;;5.04;93.25;98736.63;1760424;79;21647;-66
2021/01/25 09:27:50;;;;;;;36.15;19.42;;;;;;;5.07;93.34;98731.28;1765024;80;21767;-67
2021/01/25 09:30:18;;;;;;;38.83;19.67;;;;;;;5.09;93.44;98738.60;1762643;80;21669;-67
2021/01/25 09:36:05;;;;;;;42.65;22.80;;;;;;;5.12;93.71;98725.42;1680298;79;76112;-69
2021/01/25 09:38:35;;;;;;;41.35;20.52;;;;;;;5.16;93.49;98723.56;1713285;81;21178;-70
2021/01/25 09:41:03;;;;;;;36.45;19.75;;;;;;;5.18;93.23;98711.31;1689534;83;21347;-68
2021/01/25 09:43:31;;;;;;;41.50;22.05;;;;;;;5.15;93.18;98708.34;1702470;83;21239;-67
2021/01/25 09:45:59;;;;;;;46.80;22.30;;;;;;;5.16;93.28;98706.14;1691723;83;21238;-69
2021/01/25 09:48:27;;;;;;;42.00;21.75;;;;;;;5.17;93.13;98707.83;1693190;83;21238;-69
2021/01/25 09:50:58;;;;;;;37.03;20.60;;;;;;;5.16;93.09;98706.14;1699534;78;21237;-66
2021/01/25 09:53:26;;;;;;;40.23;21.35;;;;;;;5.17;93.10;98706.52;1704354;81;21244;-65
2021/01/25 09:55:55;;;;;;;40.65;20.85;;;;;;;5.14;93.20;98714.48;1709491;81;21441;-65
2021/01/25 09:58:24;;;;;;;38.60;21.23;;;;;;;5.14;93.28;98706.65;1707251;81;21209;-67
2021/01/25 10:00:53;;;;;;;35.63;18.42;;;;;;;5.00;93.29;98675.86;1716933;83;21788;-67
2021/01/25 10:03:23;;;;;;;35.50;17.93;;;;;;;5.13;93.53;98693.22;1710137;83;21974;-66
2021/01/25 10:05:53;;;;;;;33.42;17.95;;;;;;;5.16;93.56;98694.40;1688952;81;22135;-72
2021/01/25 10:08:20;;;;;;;38.95;20.30;;;;;;;5.19;93.27;98683.83;1659561;85;21177;-71
2021/01/25 10:10:49;;;;;;;35.80;18.27;;;;;;;5.15;93.05;98675.72;1669734;84;21165;-71
2021/01/25 10:13:18;;;;;;;33.28;18.07;;;;;;;5.13;93.09;98680.17;1664564;84;21501;-72
2021/01/25 10:15:47;;;;;;;37.85;19.20;;;;;;;5.14;92.99;98672.72;1656027;84;21185;-71
2021/01/25 10:18:16;;;;;;;35.48;17.20;;;;;;;5.17;93.12;98667.84;1674744;85;21837;-72
2021/01/25 10:20:44;;;;;;;30.77;16.42;;;;;;;5.19;92.90;98655.59;1677285;81;21242;-67
2021/01/25 10:23:12;;;;;;;32.42;17.77;;;;;;;5.19;92.84;98652.97;1680474;85;21501;-65
2021/01/25 10:25:39;;;;;;;41.18;20.72;;;;;;;5.16;92.98;98650.03;1654055;84;21726;-66
2021/01/25 10:28:07;;;;;;;26.30;16.17;;;;;;;5.15;93.09;98644.40;1651677;86;21207;-67
2021/01/25 10:30:36;;;;;;;31.52;15.65;;;;;;;5.14;93.30;98629.67;1651700;86;21394;-67
2021/01/25 10:33:05;;;;;;;30.43;16.55;;;;;;;5.18;93.33;98633.02;1644929;86;21626;-66
2021/01/25 10:35:34;;;;;;;30.30;15.93;;;;;;;5.17;93.28;98626.92;1622111;87;21670;-66
2021/01/25 10:38:04;;;;;;;34.03;16.25;;;;;;;5.19;93.55;98625.11;1622250;87;21195;-67
2021/01/25 10:40:32;;;;;;;31.07;16.33;;;;;;;5.18;93.47;98626.03;1619011;88;21208;-67
2021/01/25 10:43:00;;;;;;;26.75;14.83;;;;;;;5.18;93.54;98616.90;1624741;86;21938;-66
2021/01/25 10:45:28;;;;;;;31.65;17.17;;;;;;;5.19;93.71;98602.92;1621142;87;21243;-67
2021/01/25 10:47:56;;;;;;;32.85;16.50;;;;;;;5.19;93.68;98592.95;1647890;86;21238;-66
2021/01/25 10:50:24;;;;;;;27.25;15.13;;;;;;;5.21;93.70;98602.41;1658911;79;21640;-68
2021/01/25 10:52:52;;;;;;;34.27;17.02;;;;;;;5.23;93.74;98587.55;1720127;82;21086;-67
2021/01/25 10:55:20;;;;;;;38.88;19.32;;;;;;;5.23;93.72;98581.48;1774700;79;21371;-67
2021/01/25 10:57:47;;;;;;;36.30;19.55;;;;;;;5.23;93.81;98576.27;1771994;79;21127;-67
2021/01/25 11:00:18;;;;;;;45.40;21.17;;;;;;;5.23;93.98;98590.16;1777525;78;21139;-66
2021/01/25 11:02:45;;;;;;;44.23;20.90;;;;;;;5.26;93.98;98584.80;1783845;79;21132;-68
2021/01/25 11:05:16;;;;;;;39.65;19.92;;;;;;;5.25;94.05;98571.38;1767481;78;22557;-66
2021/01/25 11:07:45;;;;;;;46.25;20.65;;;;;;;5.30;94.02;98566.43;1682280;85;21464;-68
2021/01/25 11:10:19;;;;;;;39.03;19.57;;;;;;;5.29;94.02;98556.45;1666702;84;21164;-66
2021/01/25 11:12:49;;;;;;;36.45;17.92;;;;;;;5.34;94.00;98557.57;1707202;83;21545;-66
2021/01/25 11:15:19;;;;;;;37.38;16.62;;;;;;;5.37;93.99;98535.24;1702985;83;21132;-67
2021/01/25 11:17:46;;;;;;;32.48;17.52;;;;;;;5.41;94.13;98527.22;1684568;83;21567;-65
2021/01/25 11:20:15;;;;;;;37.23;17.17;;;;;;;5.45;93.87;98529.23;1683226;80;21449;-67
2021/01/25 11:22:43;;;;;;;30.05;14.53;;;;;;;5.45;93.85;98534.45;1688192;84;21043;-67
2021/01/25 11:25:11;;;;;;;28.10;14.47;;;;;;;5.47;93.88;98528.71;1662505;84;21119;-67
2021/01/25 11:27:39;;;;;;;31.45;17.27;;;;;;;5.48;93.91;98525.20;1704810;83;21150;-66
2021/01/25 11:30:09;;;;;;;28.10;15.03;;;;;;;5.44;94.13;98526.23;1715760;83;21143;-66
2021/01/25 11:32:37;;;;;;;31.70;16.35;;;;;;;5.45;94.07;98514.87;1703943;83;21413;-67
2021/01/25 11:35:06;;;;;;;41.20;20.00;;;;;;;5.45;94.28;98512.26;1704845;77;21106;-67
2021/01/25 11:37:35;;;;;;;33.73;17.05;;;;;;;5.45;94.28;98499.20;1755502;81;21152;-68
2021/01/25 11:40:06;;;;;;;36.20;17.25;;;;;;;5.45;94.30;98503.12;1784970;79;21136;-68
2021/01/25 11:42:34;;;;;;;33.75;16.75;;;;;;;5.47;94.19;98509.13;1789976;79;21623;-69
2021/01/25 11:45:05;;;;;;;34.95;17.70;;;;;;;5.43;94.23;98503.67;1770159;79;21330;-67
2021/01/25 11:47:33;;;;;;;29.32;16.40;;;;;;;5.42;94.27;98511.09;1755727;80;21116;-67
2021/01/25 11:50:02;;;;;;;40.28;22.55;;;;;;;5.40;94.26;98503.31;1774499;78;21156;-66
2021/01/25 11:52:32;;;;;;;36.80;17.25;;;;;;;5.43;94.25;98508.89;1678854;84;21536;-66